sensor_id;sensor_type;location;lat;lon;timestamp;P1;durP1;ratioP1;P2;durP2;ratioP2
7193;SDS011;3638;48.820;9.244;2024-01-16T00:01:01;6.57;;;5.97;;
7193;SDS011;3638;48.820;9.244;2024-01-16T00:03:28;9.30;;;5.77;;
7193;SDS011;3638;48.820;9.244;2024-01-16T00:05:56;5.90;;;5.30;;
7193;SDS011;3638;48.820;9.244;2024-01-16T00:08:25;8.07;;;6.43;;
7193;SDS011;3638;48.820;9.244;2024-01-16T00:10:52;7.53;;;5.93;;
7193;SDS011;3638;48.820;9.244;2024-01-16T00:13:19;6.60;;;5.90;;
7193;SDS011;3638;48.820;9.244;2024-01-16T00:15:47;6.77;;;6.10;;
7193;SDS011;3638;48.820;9.244;2024-01-16T00:18:14;9.17;;;6.27;;
7193;SDS011;3638;48.820;9.244;2024-01-16T00:20:41;6.27;;;5.67;;
7193;SDS011;3638;48.820;9.244;2024-01-16T00:23:09;7.10;;;5.77;;
7193;SDS011;3638;48.820;9.244;2024-01-16T00:25:37;6.90;;;6.13;;
7193;SDS011;3638;48.820;9.244;2024-01-16T00:28:05;7.13;;;6.23;;
7193;SDS011;3638;48.820;9.244;2024-01-16T00:30:32;8.30;;;6.00;;
7193;SDS011;3638;48.820;9.244;2024-01-16T00:33:00;6.73;;;6.03;;
7193;SDS011;3638;48.820;9.244;2024-01-16T00:35:27;6.87;;;6.17;;
7193;SDS011;3638;48.820;9.244;2024-01-16T00:37:55;6.93;;;6.00;;
7193;SDS011;3638;48.820;9.244;2024-01-16T00:40:22;6.93;;;6.23;;
7193;SDS011;3638;48.820;9.244;2024-01-16T00:42:51;6.47;;;5.83;;
7193;SDS011;3638;48.820;9.244;2024-01-16T00:45:18;6.83;;;6.13;;
7193;SDS011;3638;48.820;9.244;2024-01-16T00:47:46;7.10;;;5.90;;
7193;SDS011;3638;48.820;9.244;2024-01-16T00:50:13;8.87;;;6.70;;
7193;SDS011;3638;48.820;9.244;2024-01-16T00:52:41;7.30;;;6.60;;
7193;SDS011;3638;48.820;9.244;2024-01-16T00:55:08;9.53;;;6.63;;
7193;SDS011;3638;48.820;9.244;2024-01-16T00:57:35;7.50;;;6.10;;
7193;SDS011;3638;48.820;9.244;2024-01-16T01:00:05;9.27;;;6.30;;
7193;SDS011;3638;48.820;9.244;2024-01-16T01:02:35;6.60;;;5.90;;
7193;SDS011;3638;48.820;9.244;2024-01-16T01:05:02;8.03;;;5.97;;
7193;SDS011;3638;48.820;9.244;2024-01-16T01:07:30;6.83;;;6.20;;
7193;SDS011;3638;48.820;9.244;2024-01-16T01:09:57;6.87;;;6.17;;
7193;SDS011;3638;48.820;9.244;2024-01-16T01:12:24;6.80;;;6.10;;
7193;SDS011;3638;48.820;9.244;2024-01-16T01:14:51;7.43;;;6.37;;
7193;SDS011;3638;48.820;9.244;2024-01-16T01:17:20;8.23;;;5.90;;
7193;SDS011;3638;48.820;9.244;2024-01-16T01:19:47;6.60;;;6.00;;
7193;SDS011;3638;48.820;9.244;2024-01-16T01:22:14;7.27;;;6.13;;
7193;SDS011;3638;48.820;9.244;2024-01-16T01:24:41;6.57;;;5.93;;
7193;SDS011;3638;48.820;9.244;2024-01-16T01:27:08;6.43;;;5.77;;
7193;SDS011;3638;48.820;9.244;2024-01-16T01:29:36;7.20;;;6.03;;
7193;SDS011;3638;48.820;9.244;2024-01-16T01:32:03;7.93;;;6.03;;
7193;SDS011;3638;48.820;9.244;2024-01-16T01:34:32;6.77;;;6.10;;
7193;SDS011;3638;48.820;9.244;2024-01-16T01:36:59;6.90;;;6.20;;
7193;SDS011;3638;48.820;9.244;2024-01-16T01:39:26;6.60;;;6.00;;
7193;SDS011;3638;48.820;9.244;2024-01-16T01:41:55;7.10;;;5.77;;
7193;SDS011;3638;48.820;9.244;2024-01-16T01:44:22;7.20;;;5.70;;
7193;SDS011;3638;48.820;9.244;2024-01-16T01:46:50;6.90;;;5.93;;
7193;SDS011;3638;48.820;9.244;2024-01-16T01:49:19;6.53;;;5.80;;
7193;SDS011;3638;48.820;9.244;2024-01-16T01:51:48;7.37;;;5.90;;
7193;SDS011;3638;48.820;9.244;2024-01-16T01:54:15;6.93;;;6.20;;
7193;SDS011;3638;48.820;9.244;2024-01-16T01:56:44;6.63;;;6.03;;
7193;SDS011;3638;48.820;9.244;2024-01-16T01:59:11;6.93;;;6.23;;
7193;SDS011;3638;48.820;9.244;2024-01-16T02:01:40;8.47;;;6.40;;
7193;SDS011;3638;48.820;9.244;2024-01-16T02:04:08;6.63;;;6.00;;
7193;SDS011;3638;48.820;9.244;2024-01-16T02:06:35;7.87;;;6.60;;
7193;SDS011;3638;48.820;9.244;2024-01-16T02:09:04;7.20;;;5.87;;
7193;SDS011;3638;48.820;9.244;2024-01-16T02:11:32;11.13;;;7.67;;
7193;SDS011;3638;48.820;9.244;2024-01-16T02:13:59;6.63;;;6.03;;
7193;SDS011;3638;48.820;9.244;2024-01-16T02:16:34;9.33;;;6.07;;
7193;SDS011;3638;48.820;9.244;2024-01-16T02:19:03;7.07;;;6.37;;
7193;SDS011;3638;48.820;9.244;2024-01-16T02:21:31;6.83;;;6.20;;
7193;SDS011;3638;48.820;9.244;2024-01-16T02:24:02;7.53;;;6.10;;
7193;SDS011;3638;48.820;9.244;2024-01-16T02:26:31;8.73;;;6.30;;
7193;SDS011;3638;48.820;9.244;2024-01-16T02:29:00;6.50;;;5.90;;
7193;SDS011;3638;48.820;9.244;2024-01-16T02:31:28;9.10;;;6.27;;
7193;SDS011;3638;48.820;9.244;2024-01-16T02:33:55;6.80;;;5.80;;
7193;SDS011;3638;48.820;9.244;2024-01-16T02:36:23;6.90;;;6.03;;
7193;SDS011;3638;48.820;9.244;2024-01-16T02:38:50;7.67;;;5.83;;
7193;SDS011;3638;48.820;9.244;2024-01-16T02:41:19;8.83;;;7.87;;
7193;SDS011;3638;48.820;9.244;2024-01-16T02:43:46;10.60;;;8.47;;
7193;SDS011;3638;48.820;9.244;2024-01-16T02:46:13;11.87;;;8.77;;
7193;SDS011;3638;48.820;9.244;2024-01-16T02:48:41;8.57;;;7.73;;
7193;SDS011;3638;48.820;9.244;2024-01-16T02:51:08;9.77;;;7.43;;
7193;SDS011;3638;48.820;9.244;2024-01-16T02:53:36;8.27;;;7.17;;
7193;SDS011;3638;48.820;9.244;2024-01-16T02:56:03;8.53;;;6.83;;
7193;SDS011;3638;48.820;9.244;2024-01-16T02:58:32;7.63;;;6.93;;
7193;SDS011;3638;48.820;9.244;2024-01-16T03:00:59;11.43;;;6.73;;
7193;SDS011;3638;48.820;9.244;2024-01-16T03:03:26;7.17;;;6.43;;
7193;SDS011;3638;48.820;9.244;2024-01-16T03:05:54;6.87;;;6.17;;
7193;SDS011;3638;48.820;9.244;2024-01-16T03:08:22;7.03;;;6.30;;
7193;SDS011;3638;48.820;9.244;2024-01-16T03:10:49;7.83;;;6.80;;
7193;SDS011;3638;48.820;9.244;2024-01-16T03:13:17;7.27;;;6.57;;
7193;SDS011;3638;48.820;9.244;2024-01-16T03:15:45;8.63;;;6.47;;
7193;SDS011;3638;48.820;9.244;2024-01-16T03:18:12;7.03;;;6.17;;
7193;SDS011;3638;48.820;9.244;2024-01-16T03:20:40;6.97;;;6.27;;
7193;SDS011;3638;48.820;9.244;2024-01-16T03:23:07;6.80;;;6.20;;
7193;SDS011;3638;48.820;9.244;2024-01-16T03:25:34;8.23;;;6.53;;
7193;SDS011;3638;48.820;9.244;2024-01-16T03:28:03;8.27;;;6.23;;
7193;SDS011;3638;48.820;9.244;2024-01-16T03:30:32;8.50;;;6.63;;
7193;SDS011;3638;48.820;9.244;2024-01-16T03:33:03;6.53;;;5.93;;
7193;SDS011;3638;48.820;9.244;2024-01-16T03:35:30;9.27;;;6.47;;
7193;SDS011;3638;48.820;9.244;2024-01-16T03:37:57;7.57;;;6.77;;
7193;SDS011;3638;48.820;9.244;2024-01-16T03:40:25;10.30;;;6.80;;
7193;SDS011;3638;48.820;9.244;2024-01-16T03:42:52;7.77;;;6.70;;
7193;SDS011;3638;48.820;9.244;2024-01-16T03:45:19;7.73;;;6.33;;
7193;SDS011;3638;48.820;9.244;2024-01-16T03:47:47;7.53;;;6.70;;
7193;SDS011;3638;48.820;9.244;2024-01-16T03:50:16;9.00;;;6.70;;
7193;SDS011;3638;48.820;9.244;2024-01-16T03:52:43;8.90;;;7.07;;
7193;SDS011;3638;48.820;9.244;2024-01-16T03:55:11;9.20;;;6.93;;
7193;SDS011;3638;48.820;9.244;2024-01-16T03:57:38;8.07;;;6.53;;
7193;SDS011;3638;48.820;9.244;2024-01-16T04:00:06;7.20;;;6.50;;
7193;SDS011;3638;48.820;9.244;2024-01-16T04:02:37;7.97;;;6.37;;
7193;SDS011;3638;48.820;9.244;2024-01-16T04:05:04;6.67;;;6.07;;
7193;SDS011;3638;48.820;9.244;2024-01-16T04:07:33;9.03;;;6.90;;
7193;SDS011;3638;48.820;9.244;2024-01-16T04:10:02;8.70;;;6.53;;
7193;SDS011;3638;48.820;9.244;2024-01-16T04:12:30;7.40;;;6.60;;
7193;SDS011;3638;48.820;9.244;2024-01-16T04:14:57;7.03;;;6.40;;
7193;SDS011;3638;48.820;9.244;2024-01-16T04:17:24;8.33;;;6.37;;
7193;SDS011;3638;48.820;9.244;2024-01-16T04:19:51;7.87;;;7.10;;
7193;SDS011;3638;48.820;9.244;2024-01-16T04:22:19;7.83;;;6.73;;
7193;SDS011;3638;48.820;9.244;2024-01-16T04:24:47;8.63;;;6.33;;
7193;SDS011;3638;48.820;9.244;2024-01-16T04:27:14;7.13;;;6.40;;
7193;SDS011;3638;48.820;9.244;2024-01-16T04:29:42;10.03;;;7.03;;
7193;SDS011;3638;48.820;9.244;2024-01-16T04:32:09;7.50;;;6.80;;
7193;SDS011;3638;48.820;9.244;2024-01-16T04:34:36;8.93;;;7.87;;
7193;SDS011;3638;48.820;9.244;2024-01-16T04:37:03;7.87;;;6.43;;
7193;SDS011;3638;48.820;9.244;2024-01-16T04:39:31;8.73;;;6.83;;
7193;SDS011;3638;48.820;9.244;2024-01-16T04:41:59;9.67;;;6.83;;
7193;SDS011;3638;48.820;9.244;2024-01-16T04:44:27;7.37;;;6.67;;
7193;SDS011;3638;48.820;9.244;2024-01-16T04:46:55;8.87;;;7.20;;
7193;SDS011;3638;48.820;9.244;2024-01-16T04:49:22;7.93;;;6.77;;
7193;SDS011;3638;48.820;9.244;2024-01-16T04:51:49;7.40;;;6.30;;
7193;SDS011;3638;48.820;9.244;2024-01-16T04:54:17;8.57;;;6.60;;
7193;SDS011;3638;48.820;9.244;2024-01-16T04:56:44;7.13;;;6.33;;
7193;SDS011;3638;48.820;9.244;2024-01-16T04:59:12;7.40;;;6.27;;
7193;SDS011;3638;48.820;9.244;2024-01-16T05:01:40;7.73;;;6.63;;
7193;SDS011;3638;48.820;9.244;2024-01-16T05:04:07;7.53;;;6.53;;
7193;SDS011;3638;48.820;9.244;2024-01-16T05:06:35;7.47;;;6.67;;
7193;SDS011;3638;48.820;9.244;2024-01-16T05:09:02;8.63;;;7.00;;
7193;SDS011;3638;48.820;9.244;2024-01-16T05:11:29;7.77;;;6.90;;
7193;SDS011;3638;48.820;9.244;2024-01-16T05:13:57;6.93;;;6.30;;
7193;SDS011;3638;48.820;9.244;2024-01-16T05:16:25;7.07;;;6.37;;
7193;SDS011;3638;48.820;9.244;2024-01-16T05:18:53;6.90;;;6.30;;
7193;SDS011;3638;48.820;9.244;2024-01-16T05:21:20;8.43;;;6.63;;
7193;SDS011;3638;48.820;9.244;2024-01-16T05:23:47;10.43;;;6.77;;
7193;SDS011;3638;48.820;9.244;2024-01-16T05:26:14;7.27;;;6.53;;
7193;SDS011;3638;48.820;9.244;2024-01-16T05:28:42;7.97;;;7.10;;
7193;SDS011;3638;48.820;9.244;2024-01-16T05:31:09;8.10;;;6.10;;
7193;SDS011;3638;48.820;9.244;2024-01-16T05:33:37;7.37;;;6.23;;
7193;SDS011;3638;48.820;9.244;2024-01-16T05:36:05;7.30;;;6.60;;
7193;SDS011;3638;48.820;9.244;2024-01-16T05:38:32;7.97;;;6.47;;
7193;SDS011;3638;48.820;9.244;2024-01-16T05:41:00;7.87;;;6.97;;
7193;SDS011;3638;48.820;9.244;2024-01-16T05:43:28;11.27;;;7.40;;
7193;SDS011;3638;48.820;9.244;2024-01-16T05:45:56;8.60;;;6.80;;
7193;SDS011;3638;48.820;9.244;2024-01-16T05:48:23;10.50;;;6.93;;
7193;SDS011;3638;48.820;9.244;2024-01-16T05:50:52;7.70;;;6.90;;
7193;SDS011;3638;48.820;9.244;2024-01-16T05:53:19;8.43;;;6.53;;
7193;SDS011;3638;48.820;9.244;2024-01-16T05:55:46;7.73;;;6.70;;
7193;SDS011;3638;48.820;9.244;2024-01-16T05:58:13;7.20;;;6.57;;
7193;SDS011;3638;48.820;9.244;2024-01-16T06:00:40;7.23;;;6.53;;
7193;SDS011;3638;48.820;9.244;2024-01-16T06:03:08;7.13;;;6.43;;
7193;SDS011;3638;48.820;9.244;2024-01-16T06:05:35;8.70;;;6.77;;
7193;SDS011;3638;48.820;9.244;2024-01-16T06:08:04;8.60;;;6.87;;
7193;SDS011;3638;48.820;9.244;2024-01-16T06:10:32;8.60;;;6.57;;
7193;SDS011;3638;48.820;9.244;2024-01-16T06:12:59;7.23;;;6.53;;
7193;SDS011;3638;48.820;9.244;2024-01-16T06:15:26;7.77;;;6.70;;
7193;SDS011;3638;48.820;9.244;2024-01-16T06:17:54;9.63;;;8.23;;
7193;SDS011;3638;48.820;9.244;2024-01-16T06:20:21;8.57;;;7.73;;
7193;SDS011;3638;48.820;9.244;2024-01-16T06:22:49;9.33;;;8.43;;
7193;SDS011;3638;48.820;9.244;2024-01-16T06:25:18;8.07;;;7.27;;
7193;SDS011;3638;48.820;9.244;2024-01-16T06:27:45;8.10;;;7.30;;
7193;SDS011;3638;48.820;9.244;2024-01-16T06:30:12;10.13;;;6.77;;
7193;SDS011;3638;48.820;9.244;2024-01-16T06:32:40;7.73;;;6.90;;
7193;SDS011;3638;48.820;9.244;2024-01-16T06:35:07;8.23;;;7.20;;
7193;SDS011;3638;48.820;9.244;2024-01-16T06:37:34;7.67;;;6.83;;
7193;SDS011;3638;48.820;9.244;2024-01-16T06:40:03;8.17;;;6.43;;
7193;SDS011;3638;48.820;9.244;2024-01-16T06:42:33;7.87;;;7.17;;
7193;SDS011;3638;48.820;9.244;2024-01-16T06:45:01;10.57;;;7.23;;
7193;SDS011;3638;48.820;9.244;2024-01-16T06:47:28;8.97;;;6.50;;
7193;SDS011;3638;48.820;9.244;2024-01-16T06:49:55;8.83;;;6.73;;
7193;SDS011;3638;48.820;9.244;2024-01-16T06:52:23;7.87;;;6.97;;
7193;SDS011;3638;48.820;9.244;2024-01-16T06:54:50;8.30;;;6.60;;
7193;SDS011;3638;48.820;9.244;2024-01-16T06:57:17;8.20;;;6.60;;
7193;SDS011;3638;48.820;9.244;2024-01-16T06:59:46;8.03;;;6.83;;
7193;SDS011;3638;48.820;9.244;2024-01-16T07:02:13;8.50;;;6.63;;
7193;SDS011;3638;48.820;9.244;2024-01-16T07:04:40;8.53;;;7.60;;
7193;SDS011;3638;48.820;9.244;2024-01-16T07:07:07;8.10;;;6.57;;
7193;SDS011;3638;48.820;9.244;2024-01-16T07:09:35;8.93;;;6.50;;
7193;SDS011;3638;48.820;9.244;2024-01-16T07:12:02;7.17;;;6.47;;
7193;SDS011;3638;48.820;9.244;2024-01-16T07:14:30;6.90;;;6.20;;
7193;SDS011;3638;48.820;9.244;2024-01-16T07:16:59;6.73;;;6.13;;
7193;SDS011;3638;48.820;9.244;2024-01-16T07:19:26;6.83;;;6.13;;
7193;SDS011;3638;48.820;9.244;2024-01-16T07:21:54;8.00;;;7.10;;
7193;SDS011;3638;48.820;9.244;2024-01-16T07:24:21;7.23;;;6.50;;
7193;SDS011;3638;48.820;9.244;2024-01-16T07:26:48;6.47;;;5.87;;
7193;SDS011;3638;48.820;9.244;2024-01-16T07:29:15;6.33;;;5.80;;
7193;SDS011;3638;48.820;9.244;2024-01-16T07:31:43;8.57;;;6.67;;
7193;SDS011;3638;48.820;9.244;2024-01-16T07:34:12;6.90;;;6.20;;
7193;SDS011;3638;48.820;9.244;2024-01-16T07:36:44;7.17;;;6.40;;
7193;SDS011;3638;48.820;9.244;2024-01-16T07:39:12;9.87;;;6.20;;
7193;SDS011;3638;48.820;9.244;2024-01-16T07:41:39;7.20;;;5.90;;
7193;SDS011;3638;48.820;9.244;2024-01-16T07:44:06;6.43;;;5.83;;
7193;SDS011;3638;48.820;9.244;2024-01-16T07:46:33;6.67;;;5.97;;
7193;SDS011;3638;48.820;9.244;2024-01-16T07:49:01;6.77;;;5.67;;
7193;SDS011;3638;48.820;9.244;2024-01-16T07:51:29;6.97;;;6.07;;
7193;SDS011;3638;48.820;9.244;2024-01-16T07:54:04;6.87;;;6.10;;
7193;SDS011;3638;48.820;9.244;2024-01-16T07:56:32;6.87;;;6.00;;
7193;SDS011;3638;48.820;9.244;2024-01-16T07:58:59;7.20;;;6.20;;
7193;SDS011;3638;48.820;9.244;2024-01-16T08:01:27;7.27;;;5.97;;
7193;SDS011;3638;48.820;9.244;2024-01-16T08:03:54;8.57;;;6.53;;
7193;SDS011;3638;48.820;9.244;2024-01-16T08:06:21;7.67;;;6.30;;
7193;SDS011;3638;48.820;9.244;2024-01-16T08:08:50;8.27;;;5.67;;
7193;SDS011;3638;48.820;9.244;2024-01-16T08:11:18;5.93;;;5.43;;
7193;SDS011;3638;48.820;9.244;2024-01-16T08:13:45;8.43;;;5.90;;
7193;SDS011;3638;48.820;9.244;2024-01-16T08:16:12;6.83;;;5.97;;
7193;SDS011;3638;48.820;9.244;2024-01-16T08:18:39;6.30;;;5.73;;
7193;SDS011;3638;48.820;9.244;2024-01-16T08:21:06;6.30;;;5.70;;
7193;SDS011;3638;48.820;9.244;2024-01-16T08:23:34;6.33;;;5.30;;
7193;SDS011;3638;48.820;9.244;2024-01-16T08:26:03;6.13;;;5.53;;
7193;SDS011;3638;48.820;9.244;2024-01-16T08:28:31;7.03;;;5.93;;
7193;SDS011;3638;48.820;9.244;2024-01-16T08:30:58;11.37;;;5.77;;
7193;SDS011;3638;48.820;9.244;2024-01-16T08:33:25;5.90;;;5.30;;
7193;SDS011;3638;48.820;9.244;2024-01-16T08:35:53;7.90;;;5.57;;
7193;SDS011;3638;48.820;9.244;2024-01-16T08:38:20;7.70;;;5.97;;
7193;SDS011;3638;48.820;9.244;2024-01-16T08:40:47;6.07;;;5.23;;
7193;SDS011;3638;48.820;9.244;2024-01-16T08:43:16;6.50;;;5.83;;
7193;SDS011;3638;48.820;9.244;2024-01-16T08:45:43;6.90;;;5.63;;
7193;SDS011;3638;48.820;9.244;2024-01-16T08:48:10;7.73;;;6.33;;
7193;SDS011;3638;48.820;9.244;2024-01-16T08:50:39;8.23;;;5.90;;
7193;SDS011;3638;48.820;9.244;2024-01-16T08:53:07;8.70;;;6.27;;
7193;SDS011;3638;48.820;9.244;2024-01-16T08:55:34;6.60;;;6.00;;
7193;SDS011;3638;48.820;9.244;2024-01-16T08:58:01;9.67;;;6.10;;
7193;SDS011;3638;48.820;9.244;2024-01-16T09:00:30;8.33;;;6.20;;
7193;SDS011;3638;48.820;9.244;2024-01-16T09:02:58;8.37;;;6.07;;
7193;SDS011;3638;48.820;9.244;2024-01-16T09:05:26;6.80;;;5.50;;
7193;SDS011;3638;48.820;9.244;2024-01-16T09:07:54;6.07;;;5.20;;
7193;SDS011;3638;48.820;9.244;2024-01-16T09:10:23;5.87;;;5.27;;
7193;SDS011;3638;48.820;9.244;2024-01-16T09:12:50;6.07;;;5.30;;
7193;SDS011;3638;48.820;9.244;2024-01-16T09:15:17;6.40;;;5.60;;
7193;SDS011;3638;48.820;9.244;2024-01-16T09:17:46;6.93;;;5.37;;
7193;SDS011;3638;48.820;9.244;2024-01-16T09:20:15;6.87;;;5.27;;
7193;SDS011;3638;48.820;9.244;2024-01-16T09:22:42;6.07;;;4.97;;
7193;SDS011;3638;48.820;9.244;2024-01-16T09:25:09;6.93;;;5.17;;
7193;SDS011;3638;48.820;9.244;2024-01-16T09:27:36;7.23;;;5.57;;
7193;SDS011;3638;48.820;9.244;2024-01-16T09:30:04;5.90;;;5.23;;
7193;SDS011;3638;48.820;9.244;2024-01-16T09:32:32;7.10;;;5.87;;
7193;SDS011;3638;48.820;9.244;2024-01-16T09:35:01;9.23;;;5.37;;
7193;SDS011;3638;48.820;9.244;2024-01-16T09:37:31;7.37;;;5.83;;
7193;SDS011;3638;48.820;9.244;2024-01-16T09:39:58;5.63;;;5.13;;
7193;SDS011;3638;48.820;9.244;2024-01-16T09:42:25;7.43;;;5.63;;
7193;SDS011;3638;48.820;9.244;2024-01-16T09:44:53;6.63;;;5.60;;
7193;SDS011;3638;48.820;9.244;2024-01-16T09:47:22;5.17;;;4.77;;
7193;SDS011;3638;48.820;9.244;2024-01-16T09:49:50;5.73;;;5.10;;
7193;SDS011;3638;48.820;9.244;2024-01-16T09:52:18;6.43;;;5.83;;
7193;SDS011;3638;48.820;9.244;2024-01-16T09:54:46;7.30;;;5.50;;
7193;SDS011;3638;48.820;9.244;2024-01-16T09:57:13;6.40;;;5.40;;
7193;SDS011;3638;48.820;9.244;2024-01-16T09:59:41;6.10;;;5.00;;
7193;SDS011;3638;48.820;9.244;2024-01-16T10:02:10;7.87;;;5.93;;
7193;SDS011;3638;48.820;9.244;2024-01-16T10:04:37;8.53;;;5.20;;
7193;SDS011;3638;48.820;9.244;2024-01-16T10:07:04;6.27;;;4.80;;
7193;SDS011;3638;48.820;9.244;2024-01-16T10:09:33;7.53;;;5.17;;
7193;SDS011;3638;48.820;9.244;2024-01-16T10:12:01;5.57;;;4.90;;
7193;SDS011;3638;48.820;9.244;2024-01-16T10:14:29;5.90;;;5.00;;
7193;SDS011;3638;48.820;9.244;2024-01-16T10:16:56;6.00;;;5.40;;
7193;SDS011;3638;48.820;9.244;2024-01-16T10:19:24;5.30;;;4.80;;
7193;SDS011;3638;48.820;9.244;2024-01-16T10:21:53;6.73;;;4.80;;
7193;SDS011;3638;48.820;9.244;2024-01-16T10:24:28;7.13;;;5.20;;
7193;SDS011;3638;48.820;9.244;2024-01-16T10:26:58;5.93;;;4.90;;
7193;SDS011;3638;48.820;9.244;2024-01-16T10:29:27;6.47;;;5.10;;
7193;SDS011;3638;48.820;9.244;2024-01-16T10:31:56;5.33;;;4.70;;
7193;SDS011;3638;48.820;9.244;2024-01-16T10:34:23;7.23;;;5.07;;
7193;SDS011;3638;48.820;9.244;2024-01-16T10:36:51;5.70;;;5.10;;
7193;SDS011;3638;48.820;9.244;2024-01-16T10:39:20;6.27;;;5.27;;
7193;SDS011;3638;48.820;9.244;2024-01-16T10:41:53;6.50;;;5.00;;
7193;SDS011;3638;48.820;9.244;2024-01-16T10:44:23;6.83;;;5.10;;
7193;SDS011;3638;48.820;9.244;2024-01-16T10:46:50;9.27;;;5.40;;
7193;SDS011;3638;48.820;9.244;2024-01-16T10:49:17;6.23;;;4.87;;
7193;SDS011;3638;48.820;9.244;2024-01-16T10:51:46;9.07;;;5.73;;
7193;SDS011;3638;48.820;9.244;2024-01-16T10:54:15;8.23;;;5.00;;
7193;SDS011;3638;48.820;9.244;2024-01-16T10:56:44;6.30;;;5.07;;
7193;SDS011;3638;48.820;9.244;2024-01-16T10:59:18;6.17;;;4.60;;
7193;SDS011;3638;48.820;9.244;2024-01-16T11:01:51;6.10;;;4.90;;
7193;SDS011;3638;48.820;9.244;2024-01-16T11:04:21;9.23;;;5.00;;
7193;SDS011;3638;48.820;9.244;2024-01-16T11:06:51;6.35;;;5.10;;
7193;SDS011;3638;48.820;9.244;2024-01-16T11:09:18;6.60;;;4.80;;
7193;SDS011;3638;48.820;9.244;2024-01-16T11:11:47;6.33;;;4.47;;
7193;SDS011;3638;48.820;9.244;2024-01-16T11:14:16;9.73;;;5.47;;
7193;SDS011;3638;48.820;9.244;2024-01-16T11:16:44;5.13;;;4.63;;
7193;SDS011;3638;48.820;9.244;2024-01-16T11:19:15;6.57;;;4.63;;
7193;SDS011;3638;48.820;9.244;2024-01-16T11:21:43;7.03;;;5.30;;
7193;SDS011;3638;48.820;9.244;2024-01-16T11:24:10;5.53;;;4.60;;
7193;SDS011;3638;48.820;9.244;2024-01-16T11:26:39;10.40;;;4.67;;
7193;SDS011;3638;48.820;9.244;2024-01-16T11:32:02;6.17;;;4.80;;
7193;SDS011;3638;48.820;9.244;2024-01-16T11:37:25;7.27;;;3.90;;
7193;SDS011;3638;48.820;9.244;2024-01-16T11:42:49;4.60;;;3.70;;
7193;SDS011;3638;48.820;9.244;2024-01-16T11:48:25;5.83;;;4.53;;
7193;SDS011;3638;48.820;9.244;2024-01-16T11:50:53;5.70;;;4.50;;
7193;SDS011;3638;48.820;9.244;2024-01-16T11:53:37;4.50;;;4.10;;
7193;SDS011;3638;48.820;9.244;2024-01-16T11:59:16;5.50;;;4.30;;
7193;SDS011;3638;48.820;9.244;2024-01-16T12:02:02;4.20;;;3.70;;
7193;SDS011;3638;48.820;9.244;2024-01-16T12:04:35;3.97;;;3.53;;
7193;SDS011;3638;48.820;9.244;2024-01-16T12:07:03;4.80;;;3.50;;
7193;SDS011;3638;48.820;9.244;2024-01-16T12:09:31;3.80;;;3.40;;
7193;SDS011;3638;48.820;9.244;2024-01-16T12:11:59;4.43;;;3.30;;
7193;SDS011;3638;48.820;9.244;2024-01-16T12:14:27;5.53;;;3.70;;
7193;SDS011;3638;48.820;9.244;2024-01-16T12:17:07;5.57;;;3.87;;
7193;SDS011;3638;48.820;9.244;2024-01-16T12:19:35;7.50;;;3.50;;
7193;SDS011;3638;48.820;9.244;2024-01-16T12:22:06;5.37;;;3.73;;
7193;SDS011;3638;48.820;9.244;2024-01-16T12:24:35;6.03;;;3.57;;
7193;SDS011;3638;48.820;9.244;2024-01-16T12:27:03;3.60;;;3.30;;
7193;SDS011;3638;48.820;9.244;2024-01-16T12:29:30;4.03;;;3.60;;
7193;SDS011;3638;48.820;9.244;2024-01-16T12:32:04;6.10;;;3.73;;
7193;SDS011;3638;48.820;9.244;2024-01-16T12:34:33;4.30;;;3.20;;
7193;SDS011;3638;48.820;9.244;2024-01-16T12:37:07;4.87;;;3.40;;
7193;SDS011;3638;48.820;9.244;2024-01-16T12:39:35;4.03;;;3.43;;
7193;SDS011;3638;48.820;9.244;2024-01-16T12:42:02;4.13;;;3.63;;
7193;SDS011;3638;48.820;9.244;2024-01-16T12:44:30;4.23;;;3.00;;
7193;SDS011;3638;48.820;9.244;2024-01-16T12:46:57;4.07;;;3.00;;
7193;SDS011;3638;48.820;9.244;2024-01-16T12:49:26;4.70;;;3.10;;
7193;SDS011;3638;48.820;9.244;2024-01-16T12:54:47;3.03;;;2.60;;
7193;SDS011;3638;48.820;9.244;2024-01-16T12:57:18;4.23;;;3.10;;
7193;SDS011;3638;48.820;9.244;2024-01-16T12:59:46;4.83;;;3.07;;
7193;SDS011;3638;48.820;9.244;2024-01-16T13:02:20;4.13;;;2.87;;
7193;SDS011;3638;48.820;9.244;2024-01-16T13:04:48;5.83;;;3.30;;
7193;SDS011;3638;48.820;9.244;2024-01-16T13:07:23;4.33;;;3.40;;
7193;SDS011;3638;48.820;9.244;2024-01-16T13:10:05;4.77;;;3.20;;
7193;SDS011;3638;48.820;9.244;2024-01-16T13:12:33;4.30;;;3.10;;
7193;SDS011;3638;48.820;9.244;2024-01-16T13:15:01;4.53;;;3.20;;
7193;SDS011;3638;48.820;9.244;2024-01-16T13:17:30;3.70;;;2.93;;
7193;SDS011;3638;48.820;9.244;2024-01-16T13:19:58;3.10;;;2.90;;
7193;SDS011;3638;48.820;9.244;2024-01-16T13:22:26;3.33;;;3.00;;
7193;SDS011;3638;48.820;9.244;2024-01-16T13:24:54;4.37;;;3.10;;
7193;SDS011;3638;48.820;9.244;2024-01-16T13:27:22;3.97;;;3.00;;
7193;SDS011;3638;48.820;9.244;2024-01-16T13:29:51;4.53;;;3.73;;
7193;SDS011;3638;48.820;9.244;2024-01-16T13:32:18;4.17;;;3.47;;
7193;SDS011;3638;48.820;9.244;2024-01-16T13:34:46;4.67;;;3.23;;
7193;SDS011;3638;48.820;9.244;2024-01-16T13:37:15;3.93;;;3.00;;
7193;SDS011;3638;48.820;9.244;2024-01-16T13:39:48;3.97;;;3.13;;
7193;SDS011;3638;48.820;9.244;2024-01-16T13:42:15;4.50;;;2.80;;
7193;SDS011;3638;48.820;9.244;2024-01-16T13:44:45;4.63;;;3.70;;
7193;SDS011;3638;48.820;9.244;2024-01-16T13:47:12;3.40;;;3.10;;
7193;SDS011;3638;48.820;9.244;2024-01-16T13:49:41;4.43;;;3.57;;
7193;SDS011;3638;48.820;9.244;2024-01-16T13:52:08;3.90;;;3.10;;
7193;SDS011;3638;48.820;9.244;2024-01-16T13:54:36;3.70;;;3.30;;
7193;SDS011;3638;48.820;9.244;2024-01-16T13:57:06;4.33;;;3.53;;
7193;SDS011;3638;48.820;9.244;2024-01-16T13:59:34;5.03;;;3.40;;
7193;SDS011;3638;48.820;9.244;2024-01-16T14:02:01;4.37;;;3.50;;
7193;SDS011;3638;48.820;9.244;2024-01-16T14:04:29;5.47;;;3.33;;
7193;SDS011;3638;48.820;9.244;2024-01-16T14:06:56;7.30;;;3.30;;
7193;SDS011;3638;48.820;9.244;2024-01-16T14:09:23;4.03;;;3.47;;
7193;SDS011;3638;48.820;9.244;2024-01-16T14:11:50;4.10;;;3.60;;
7193;SDS011;3638;48.820;9.244;2024-01-16T14:14:19;5.00;;;3.50;;
7193;SDS011;3638;48.820;9.244;2024-01-16T14:16:46;4.63;;;3.70;;
7193;SDS011;3638;48.820;9.244;2024-01-16T14:19:14;6.17;;;3.10;;
7193;SDS011;3638;48.820;9.244;2024-01-16T14:21:43;4.60;;;3.40;;
7193;SDS011;3638;48.820;9.244;2024-01-16T14:24:10;4.63;;;3.60;;
7193;SDS011;3638;48.820;9.244;2024-01-16T14:26:37;5.73;;;3.83;;
7193;SDS011;3638;48.820;9.244;2024-01-16T14:29:04;7.07;;;3.50;;
7193;SDS011;3638;48.820;9.244;2024-01-16T14:31:33;5.57;;;3.50;;
7193;SDS011;3638;48.820;9.244;2024-01-16T14:34:00;5.13;;;3.90;;
7193;SDS011;3638;48.820;9.244;2024-01-16T14:36:28;6.17;;;3.73;;
7193;SDS011;3638;48.820;9.244;2024-01-16T14:38:55;4.43;;;3.90;;
7193;SDS011;3638;48.820;9.244;2024-01-16T14:41:23;6.80;;;4.17;;
7193;SDS011;3638;48.820;9.244;2024-01-16T14:43:50;4.30;;;3.90;;
7193;SDS011;3638;48.820;9.244;2024-01-16T14:46:17;3.80;;;3.50;;
7193;SDS011;3638;48.820;9.244;2024-01-16T14:48:46;6.37;;;4.27;;
7193;SDS011;3638;48.820;9.244;2024-01-16T14:51:13;5.67;;;3.70;;
7193;SDS011;3638;48.820;9.244;2024-01-16T14:53:40;6.43;;;4.00;;
7193;SDS011;3638;48.820;9.244;2024-01-16T14:56:07;4.63;;;4.07;;
7193;SDS011;3638;48.820;9.244;2024-01-16T14:58:35;5.00;;;4.50;;
7193;SDS011;3638;48.820;9.244;2024-01-16T15:01:02;4.63;;;4.20;;
7193;SDS011;3638;48.820;9.244;2024-01-16T15:03:32;5.30;;;3.80;;
7193;SDS011;3638;48.820;9.244;2024-01-16T15:06:00;5.37;;;4.30;;
7193;SDS011;3638;48.820;9.244;2024-01-16T15:08:28;4.50;;;4.03;;
7193;SDS011;3638;48.820;9.244;2024-01-16T15:10:56;7.27;;;4.10;;
7193;SDS011;3638;48.820;9.244;2024-01-16T15:13:24;4.63;;;3.90;;
7193;SDS011;3638;48.820;9.244;2024-01-16T15:15:52;5.03;;;4.10;;
7193;SDS011;3638;48.820;9.244;2024-01-16T15:18:20;4.57;;;4.10;;
7193;SDS011;3638;48.820;9.244;2024-01-16T15:20:48;6.80;;;4.70;;
7193;SDS011;3638;48.820;9.244;2024-01-16T15:23:16;6.03;;;4.43;;
7193;SDS011;3638;48.820;9.244;2024-01-16T15:25:43;6.07;;;4.57;;
7193;SDS011;3638;48.820;9.244;2024-01-16T15:28:11;5.43;;;4.00;;
7193;SDS011;3638;48.820;9.244;2024-01-16T15:30:38;4.53;;;4.13;;
7193;SDS011;3638;48.820;9.244;2024-01-16T15:33:07;6.20;;;4.40;;
7193;SDS011;3638;48.820;9.244;2024-01-16T15:35:34;6.40;;;4.80;;
7193;SDS011;3638;48.820;9.244;2024-01-16T15:38:02;5.03;;;4.43;;